Granada, Minnesota
Current Conditions -  °F | °C
As of 3:35 PM on Saturday 25 Oct 2014 (Local Time) from KFRM Reporting Station
Clear Clear  
Wind Chill: 66°   Ceiling: Unl
Heat Index: 66°   Visibility: 10mi
Dew Point: -8°   Wind: 15mph
Humidity: 5%   Direction: 320°NW
Pressure: 30.09"   Gusts: 18mph
Location:  43.7°N, 94.35°W
Report Text: KFRM 252035Z AUTO 32013G16KT 10SM CLR 19/M22 A3009 RMK AO1
Loading
Personal Weather Stations






























Interactive Weather Map
Tropical Storm Tracking
New forecast layout! Learn more

10-Day Weather Forecast

Advertisements
Track Severe Weather on mobile